sensor_id;sensor_type;location;lat;lon;timestamp;temperature;humidity
35325;DHT22;35135;47.510;19.036;2023-10-31T00:01:21;22.80;62.40
35325;DHT22;35135;47.510;19.036;2023-10-31T00:03:47;22.90;62.50
35325;DHT22;35135;47.510;19.036;2023-10-31T00:06:12;22.80;62.40
35325;DHT22;35135;47.510;19.036;2023-10-31T00:08:38;22.80;62.50
35325;DHT22;35135;47.510;19.036;2023-10-31T00:11:04;22.80;62.50
35325;DHT22;35135;47.510;19.036;2023-10-31T00:13:29;22.80;62.50
35325;DHT22;35135;47.510;19.036;2023-10-31T00:15:55;22.80;62.60
35325;DHT22;35135;47.510;19.036;2023-10-31T00:18:20;22.80;62.60
35325;DHT22;35135;47.510;19.036;2023-10-31T00:20:46;22.80;62.60
35325;DHT22;35135;47.510;19.036;2023-10-31T00:23:12;22.80;62.70
35325;DHT22;35135;47.510;19.036;2023-10-31T00:25:38;22.80;62.80
35325;DHT22;35135;47.510;19.036;2023-10-31T00:28:03;22.80;62.80
35325;DHT22;35135;47.510;19.036;2023-10-31T00:30:29;22.80;62.70
35325;DHT22;35135;47.510;19.036;2023-10-31T00:32:55;22.80;62.70
35325;DHT22;35135;47.510;19.036;2023-10-31T00:35:21;22.80;62.80
35325;DHT22;35135;47.510;19.036;2023-10-31T00:37:46;22.80;62.70
35325;DHT22;35135;47.510;19.036;2023-10-31T00:40:12;22.80;62.70
35325;DHT22;35135;47.510;19.036;2023-10-31T00:42:38;22.80;62.80
35325;DHT22;35135;47.510;19.036;2023-10-31T00:45:06;22.80;63.00
35325;DHT22;35135;47.510;19.036;2023-10-31T00:47:32;22.80;62.90
35325;DHT22;35135;47.510;19.036;2023-10-31T00:49:57;22.80;62.90
35325;DHT22;35135;47.510;19.036;2023-10-31T00:52:23;22.80;62.80
35325;DHT22;35135;47.510;19.036;2023-10-31T00:54:49;22.80;62.90
35325;DHT22;35135;47.510;19.036;2023-10-31T00:57:15;22.80;62.90
35325;DHT22;35135;47.510;19.036;2023-10-31T00:59:40;22.80;62.90
35325;DHT22;35135;47.510;19.036;2023-10-31T01:02:06;22.80;62.90
35325;DHT22;35135;47.510;19.036;2023-10-31T01:04:32;22.80;63.00
35325;DHT22;35135;47.510;19.036;2023-10-31T01:06:58;22.80;62.80
35325;DHT22;35135;47.510;19.036;2023-10-31T01:09:23;22.70;63.40
35325;DHT22;35135;47.510;19.036;2023-10-31T01:11:49;22.80;63.10
35325;DHT22;35135;47.510;19.036;2023-10-31T01:14:14;22.70;62.90
35325;DHT22;35135;47.510;19.036;2023-10-31T01:16:41;22.70;63.00
35325;DHT22;35135;47.510;19.036;2023-10-31T01:19:06;22.70;62.90
35325;DHT22;35135;47.510;19.036;2023-10-31T01:21:33;22.70;62.80
35325;DHT22;35135;47.510;19.036;2023-10-31T01:23:59;22.70;62.90
35325;DHT22;35135;47.510;19.036;2023-10-31T01:26:25;22.70;62.90
35325;DHT22;35135;47.510;19.036;2023-10-31T01:28:51;22.70;62.80
35325;DHT22;35135;47.510;19.036;2023-10-31T01:31:17;22.70;62.90
35325;DHT22;35135;47.510;19.036;2023-10-31T01:33:42;22.70;63.00
35325;DHT22;35135;47.510;19.036;2023-10-31T01:36:08;22.70;62.80
35325;DHT22;35135;47.510;19.036;2023-10-31T01:38:36;22.70;62.80
35325;DHT22;35135;47.510;19.036;2023-10-31T01:41:02;22.70;62.90
35325;DHT22;35135;47.510;19.036;2023-10-31T01:43:35;22.70;62.80
35325;DHT22;35135;47.510;19.036;2023-10-31T01:46:01;22.70;62.80
35325;DHT22;35135;47.510;19.036;2023-10-31T01:48:29;22.70;62.90
35325;DHT22;35135;47.510;19.036;2023-10-31T01:50:57;22.70;62.90
35325;DHT22;35135;47.510;19.036;2023-10-31T01:53:24;22.70;63.00
35325;DHT22;35135;47.510;19.036;2023-10-31T01:55:52;22.70;62.90
35325;DHT22;35135;47.510;19.036;2023-10-31T01:58:19;22.60;62.70
35325;DHT22;35135;47.510;19.036;2023-10-31T02:00:46;22.70;62.90
35325;DHT22;35135;47.510;19.036;2023-10-31T02:03:13;22.70;62.90
35325;DHT22;35135;47.510;19.036;2023-10-31T02:05:39;22.70;63.50
35325;DHT22;35135;47.510;19.036;2023-10-31T02:08:05;22.70;62.90
35325;DHT22;35135;47.510;19.036;2023-10-31T02:10:33;22.70;62.90
35325;DHT22;35135;47.510;19.036;2023-10-31T02:13:13;22.70;63.00
35325;DHT22;35135;47.510;19.036;2023-10-31T02:15:39;22.70;62.90
35325;DHT22;35135;47.510;19.036;2023-10-31T02:18:06;22.70;63.00
35325;DHT22;35135;47.510;19.036;2023-10-31T02:20:32;22.70;62.90
35325;DHT22;35135;47.510;19.036;2023-10-31T02:22:58;22.60;62.80
35325;DHT22;35135;47.510;19.036;2023-10-31T02:25:24;22.60;63.00
35325;DHT22;35135;47.510;19.036;2023-10-31T02:27:50;22.70;62.90
35325;DHT22;35135;47.510;19.036;2023-10-31T02:30:15;22.70;62.90
35325;DHT22;35135;47.510;19.036;2023-10-31T02:32:41;22.60;62.90
35325;DHT22;35135;47.510;19.036;2023-10-31T02:35:08;22.60;62.90
35325;DHT22;35135;47.510;19.036;2023-10-31T02:37:34;22.60;62.90
35325;DHT22;35135;47.510;19.036;2023-10-31T02:40:00;22.60;62.90
35325;DHT22;35135;47.510;19.036;2023-10-31T02:42:27;22.60;62.90
35325;DHT22;35135;47.510;19.036;2023-10-31T02:44:53;22.60;63.00
35325;DHT22;35135;47.510;19.036;2023-10-31T02:47:19;22.60;63.00
35325;DHT22;35135;47.510;19.036;2023-10-31T02:49:45;22.60;63.00
35325;DHT22;35135;47.510;19.036;2023-10-31T02:52:10;22.60;62.90
35325;DHT22;35135;47.510;19.036;2023-10-31T02:54:36;22.60;63.00
35325;DHT22;35135;47.510;19.036;2023-10-31T02:57:02;22.60;62.90
35325;DHT22;35135;47.510;19.036;2023-10-31T02:59:28;22.60;63.00
35325;DHT22;35135;47.510;19.036;2023-10-31T03:01:56;22.60;62.90
35325;DHT22;35135;47.510;19.036;2023-10-31T03:04:22;22.60;62.90
35325;DHT22;35135;47.510;19.036;2023-10-31T03:06:48;22.60;62.90
35325;DHT22;35135;47.510;19.036;2023-10-31T03:09:14;22.60;63.00
35325;DHT22;35135;47.510;19.036;2023-10-31T03:11:39;22.60;63.00
35325;DHT22;35135;47.510;19.036;2023-10-31T03:14:05;22.60;62.90
35325;DHT22;35135;47.510;19.036;2023-10-31T03:16:31;22.60;62.90
35325;DHT22;35135;47.510;19.036;2023-10-31T03:18:58;22.60;62.90
35325;DHT22;35135;47.510;19.036;2023-10-31T03:21:24;22.60;62.90
35325;DHT22;35135;47.510;19.036;2023-10-31T03:23:51;22.60;62.90
35325;DHT22;35135;47.510;19.036;2023-10-31T03:26:19;22.60;62.90
35325;DHT22;35135;47.510;19.036;2023-10-31T03:28:45;22.60;62.90
35325;DHT22;35135;47.510;19.036;2023-10-31T03:31:12;22.60;62.90
35325;DHT22;35135;47.510;19.036;2023-10-31T03:33:38;22.60;63.00
35325;DHT22;35135;47.510;19.036;2023-10-31T03:36:04;22.60;63.00
35325;DHT22;35135;47.510;19.036;2023-10-31T03:38:31;22.60;62.90
35325;DHT22;35135;47.510;19.036;2023-10-31T03:40:57;22.60;62.90
35325;DHT22;35135;47.510;19.036;2023-10-31T03:43:22;22.60;63.00
35325;DHT22;35135;47.510;19.036;2023-10-31T03:45:48;22.60;63.00
35325;DHT22;35135;47.510;19.036;2023-10-31T03:48:15;22.60;63.00
35325;DHT22;35135;47.510;19.036;2023-10-31T03:50:41;22.60;62.90
35325;DHT22;35135;47.510;19.036;2023-10-31T03:53:07;22.60;63.00
35325;DHT22;35135;47.510;19.036;2023-10-31T03:55:33;22.60;62.90
35325;DHT22;35135;47.510;19.036;2023-10-31T03:57:58;22.60;63.00
35325;DHT22;35135;47.510;19.036;2023-10-31T04:00:24;22.60;63.00
35325;DHT22;35135;47.510;19.036;2023-10-31T04:02:50;22.60;63.00
35325;DHT22;35135;47.510;19.036;2023-10-31T04:05:15;22.60;63.00
35325;DHT22;35135;47.510;19.036;2023-10-31T04:07:41;22.60;63.00
35325;DHT22;35135;47.510;19.036;2023-10-31T04:10:09;22.60;63.00
35325;DHT22;35135;47.510;19.036;2023-10-31T04:12:35;22.60;62.90
35325;DHT22;35135;47.510;19.036;2023-10-31T04:15:01;22.60;63.00
35325;DHT22;35135;47.510;19.036;2023-10-31T04:17:26;22.60;63.10
35325;DHT22;35135;47.510;19.036;2023-10-31T04:19:52;22.60;63.00
35325;DHT22;35135;47.510;19.036;2023-10-31T04:22:18;22.60;63.00
35325;DHT22;35135;47.510;19.036;2023-10-31T04:24:43;22.60;63.60
35325;DHT22;35135;47.510;19.036;2023-10-31T04:27:09;22.60;63.00
35325;DHT22;35135;47.510;19.036;2023-10-31T04:29:35;22.50;63.00
35325;DHT22;35135;47.510;19.036;2023-10-31T04:32:00;22.60;63.00
35325;DHT22;35135;47.510;19.036;2023-10-31T04:34:26;22.60;63.00
35325;DHT22;35135;47.510;19.036;2023-10-31T04:36:52;22.60;63.00
35325;DHT22;35135;47.510;19.036;2023-10-31T04:39:17;22.50;63.00
35325;DHT22;35135;47.510;19.036;2023-10-31T04:41:43;22.50;63.00
35325;DHT22;35135;47.510;19.036;2023-10-31T04:44:09;22.60;63.00
35325;DHT22;35135;47.510;19.036;2023-10-31T04:46:34;22.50;62.90
35325;DHT22;35135;47.510;19.036;2023-10-31T04:49:00;22.50;62.90
35325;DHT22;35135;47.510;19.036;2023-10-31T04:51:26;22.50;62.90
35325;DHT22;35135;47.510;19.036;2023-10-31T04:53:52;22.50;62.80
35325;DHT22;35135;47.510;19.036;2023-10-31T04:56:17;22.60;62.80
35325;DHT22;35135;47.510;19.036;2023-10-31T04:58:44;22.60;62.70
35325;DHT22;35135;47.510;19.036;2023-10-31T05:01:11;22.60;62.80
35325;DHT22;35135;47.510;19.036;2023-10-31T05:03:37;22.50;62.70
35325;DHT22;35135;47.510;19.036;2023-10-31T05:06:04;22.60;62.80
35325;DHT22;35135;47.510;19.036;2023-10-31T05:08:30;22.60;62.70
35325;DHT22;35135;47.510;19.036;2023-10-31T05:10:57;22.60;62.60
35325;DHT22;35135;47.510;19.036;2023-10-31T05:13:24;22.60;62.80
35325;DHT22;35135;47.510;19.036;2023-10-31T05:15:49;22.60;62.80
35325;DHT22;35135;47.510;19.036;2023-10-31T05:18:18;22.60;62.80
35325;DHT22;35135;47.510;19.036;2023-10-31T05:20:44;22.50;62.70
35325;DHT22;35135;47.510;19.036;2023-10-31T05:23:10;22.60;62.80
35325;DHT22;35135;47.510;19.036;2023-10-31T05:25:35;22.60;62.80
35325;DHT22;35135;47.510;19.036;2023-10-31T05:28:02;22.60;62.80
35325;DHT22;35135;47.510;19.036;2023-10-31T05:30:27;22.60;62.80
35325;DHT22;35135;47.510;19.036;2023-10-31T05:32:53;22.60;62.80
35325;DHT22;35135;47.510;19.036;2023-10-31T05:35:19;22.60;62.90
35325;DHT22;35135;47.510;19.036;2023-10-31T05:37:46;22.50;62.70
35325;DHT22;35135;47.510;19.036;2023-10-31T05:40:12;22.60;62.80
35325;DHT22;35135;47.510;19.036;2023-10-31T05:42:38;22.50;62.80
35325;DHT22;35135;47.510;19.036;2023-10-31T05:45:05;22.50;62.70
35325;DHT22;35135;47.510;19.036;2023-10-31T05:47:30;22.50;62.70
35325;DHT22;35135;47.510;19.036;2023-10-31T05:49:56;22.50;62.70
35325;DHT22;35135;47.510;19.036;2023-10-31T05:52:22;22.50;62.80
35325;DHT22;35135;47.510;19.036;2023-10-31T05:54:48;22.50;62.80
35325;DHT22;35135;47.510;19.036;2023-10-31T05:57:14;22.50;62.80
35325;DHT22;35135;47.510;19.036;2023-10-31T05:59:40;22.50;62.80
35325;DHT22;35135;47.510;19.036;2023-10-31T06:02:05;22.50;62.80
35325;DHT22;35135;47.510;19.036;2023-10-31T06:04:31;22.50;62.70
35325;DHT22;35135;47.510;19.036;2023-10-31T06:06:56;22.50;62.70
35325;DHT22;35135;47.510;19.036;2023-10-31T06:09:22;22.50;62.70
35325;DHT22;35135;47.510;19.036;2023-10-31T06:11:48;22.50;62.80
35325;DHT22;35135;47.510;19.036;2023-10-31T06:14:13;22.50;63.00
35325;DHT22;35135;47.510;19.036;2023-10-31T06:16:43;22.50;62.80
35325;DHT22;35135;47.510;19.036;2023-10-31T06:19:09;22.50;62.80
35325;DHT22;35135;47.510;19.036;2023-10-31T06:21:35;22.50;62.70
35325;DHT22;35135;47.510;19.036;2023-10-31T06:24:02;22.50;62.70
35325;DHT22;35135;47.510;19.036;2023-10-31T06:26:28;22.50;62.70
35325;DHT22;35135;47.510;19.036;2023-10-31T06:28:54;22.50;63.00
35325;DHT22;35135;47.510;19.036;2023-10-31T06:31:20;22.60;63.10
35325;DHT22;35135;47.510;19.036;2023-10-31T06:33:46;22.60;63.00
35325;DHT22;35135;47.510;19.036;2023-10-31T06:36:11;22.60;62.90
35325;DHT22;35135;47.510;19.036;2023-10-31T06:38:37;22.50;62.90
35325;DHT22;35135;47.510;19.036;2023-10-31T06:41:03;22.50;62.90
35325;DHT22;35135;47.510;19.036;2023-10-31T06:43:29;22.50;63.00
35325;DHT22;35135;47.510;19.036;2023-10-31T06:45:54;22.50;63.10
35325;DHT22;35135;47.510;19.036;2023-10-31T06:48:20;22.50;63.20
35325;DHT22;35135;47.510;19.036;2023-10-31T06:50:46;22.50;63.10
35325;DHT22;35135;47.510;19.036;2023-10-31T06:53:12;22.50;63.20
35325;DHT22;35135;47.510;19.036;2023-10-31T06:55:37;22.50;63.10
35325;DHT22;35135;47.510;19.036;2023-10-31T06:58:03;22.50;63.00
35325;DHT22;35135;47.510;19.036;2023-10-31T07:00:29;22.50;62.90
35325;DHT22;35135;47.510;19.036;2023-10-31T07:02:55;22.50;63.20
35325;DHT22;35135;47.510;19.036;2023-10-31T07:05:20;22.50;63.20
35325;DHT22;35135;47.510;19.036;2023-10-31T07:07:46;22.50;63.10
35325;DHT22;35135;47.510;19.036;2023-10-31T07:10:12;22.50;63.00
35325;DHT22;35135;47.510;19.036;2023-10-31T07:12:38;22.50;63.10
35325;DHT22;35135;47.510;19.036;2023-10-31T07:15:04;22.50;63.10
35325;DHT22;35135;47.510;19.036;2023-10-31T07:17:30;22.50;63.00
35325;DHT22;35135;47.510;19.036;2023-10-31T07:19:56;22.50;63.00
35325;DHT22;35135;47.510;19.036;2023-10-31T07:22:22;22.50;63.00
35325;DHT22;35135;47.510;19.036;2023-10-31T07:24:51;22.50;63.00
35325;DHT22;35135;47.510;19.036;2023-10-31T07:27:17;22.50;63.00
35325;DHT22;35135;47.510;19.036;2023-10-31T07:29:43;22.50;63.00
35325;DHT22;35135;47.510;19.036;2023-10-31T07:32:09;22.50;62.80
35325;DHT22;35135;47.510;19.036;2023-10-31T07:34:35;22.50;62.80
35325;DHT22;35135;47.510;19.036;2023-10-31T07:37:01;22.50;62.80
35325;DHT22;35135;47.510;19.036;2023-10-31T07:39:27;22.50;62.80
35325;DHT22;35135;47.510;19.036;2023-10-31T07:41:53;22.50;62.80
35325;DHT22;35135;47.510;19.036;2023-10-31T07:44:19;22.50;62.80
35325;DHT22;35135;47.510;19.036;2023-10-31T07:46:44;22.50;62.80
35325;DHT22;35135;47.510;19.036;2023-10-31T07:49:10;22.50;62.70
35325;DHT22;35135;47.510;19.036;2023-10-31T07:51:38;22.50;62.70
35325;DHT22;35135;47.510;19.036;2023-10-31T07:54:04;22.50;62.60
35325;DHT22;35135;47.510;19.036;2023-10-31T07:56:30;22.50;62.60
35325;DHT22;35135;47.510;19.036;2023-10-31T07:58:58;22.50;62.60
35325;DHT22;35135;47.510;19.036;2023-10-31T08:01:24;22.50;62.50
35325;DHT22;35135;47.510;19.036;2023-10-31T08:03:49;22.60;62.50
35325;DHT22;35135;47.510;19.036;2023-10-31T08:06:15;22.60;62.50
35325;DHT22;35135;47.510;19.036;2023-10-31T08:08:41;22.60;62.40
35325;DHT22;35135;47.510;19.036;2023-10-31T08:11:10;22.60;62.40
35325;DHT22;35135;47.510;19.036;2023-10-31T08:13:39;22.60;62.40
35325;DHT22;35135;47.510;19.036;2023-10-31T08:16:06;22.60;62.40
35325;DHT22;35135;47.510;19.036;2023-10-31T08:18:32;22.60;62.40
35325;DHT22;35135;47.510;19.036;2023-10-31T08:20:57;22.60;62.40
35325;DHT22;35135;47.510;19.036;2023-10-31T08:23:25;22.60;62.40
35325;DHT22;35135;47.510;19.036;2023-10-31T08:25:51;22.60;62.30
35325;DHT22;35135;47.510;19.036;2023-10-31T08:28:17;22.60;62.30
35325;DHT22;35135;47.510;19.036;2023-10-31T08:30:42;22.60;62.20
35325;DHT22;35135;47.510;19.036;2023-10-31T08:33:08;22.60;62.20
35325;DHT22;35135;47.510;19.036;2023-10-31T08:35:34;22.60;62.20
35325;DHT22;35135;47.510;19.036;2023-10-31T08:38:00;22.60;62.20
35325;DHT22;35135;47.510;19.036;2023-10-31T08:40:26;22.60;62.20
35325;DHT22;35135;47.510;19.036;2023-10-31T08:42:52;22.60;62.20
35325;DHT22;35135;47.510;19.036;2023-10-31T08:45:17;22.60;62.20
35325;DHT22;35135;47.510;19.036;2023-10-31T08:47:43;22.60;62.20
35325;DHT22;35135;47.510;19.036;2023-10-31T08:50:09;22.60;62.20
35325;DHT22;35135;47.510;19.036;2023-10-31T08:52:36;22.60;62.20
35325;DHT22;35135;47.510;19.036;2023-10-31T08:55:02;22.60;62.10
35325;DHT22;35135;47.510;19.036;2023-10-31T08:57:29;22.60;62.10
35325;DHT22;35135;47.510;19.036;2023-10-31T08:59:54;22.60;62.10
35325;DHT22;35135;47.510;19.036;2023-10-31T09:02:20;22.60;62.10
35325;DHT22;35135;47.510;19.036;2023-10-31T09:04:46;22.70;62.10
35325;DHT22;35135;47.510;19.036;2023-10-31T09:07:11;22.60;62.10
35325;DHT22;35135;47.510;19.036;2023-10-31T09:09:37;22.70;62.20
35325;DHT22;35135;47.510;19.036;2023-10-31T09:12:03;22.70;62.20
35325;DHT22;35135;47.510;19.036;2023-10-31T09:14:29;22.60;62.10
35325;DHT22;35135;47.510;19.036;2023-10-31T09:16:54;22.70;62.10
35325;DHT22;35135;47.510;19.036;2023-10-31T09:19:20;22.70;62.10
35325;DHT22;35135;47.510;19.036;2023-10-31T09:21:46;22.60;62.00
35325;DHT22;35135;47.510;19.036;2023-10-31T09:24:11;22.70;62.00
35325;DHT22;35135;47.510;19.036;2023-10-31T09:26:41;22.70;62.00
35325;DHT22;35135;47.510;19.036;2023-10-31T09:29:07;22.70;62.00
35325;DHT22;35135;47.510;19.036;2023-10-31T09:31:32;22.70;62.00
35325;DHT22;35135;47.510;19.036;2023-10-31T09:33:59;22.70;62.10
35325;DHT22;35135;47.510;19.036;2023-10-31T09:36:24;22.80;62.10
35325;DHT22;35135;47.510;19.036;2023-10-31T09:38:51;22.80;62.00
35325;DHT22;35135;47.510;19.036;2023-10-31T09:41:16;22.80;61.80
35325;DHT22;35135;47.510;19.036;2023-10-31T09:43:42;22.80;61.80
35325;DHT22;35135;47.510;19.036;2023-10-31T09:46:08;22.80;61.70
35325;DHT22;35135;47.510;19.036;2023-10-31T09:48:35;22.90;61.60
35325;DHT22;35135;47.510;19.036;2023-10-31T09:51:02;22.80;61.50
35325;DHT22;35135;47.510;19.036;2023-10-31T09:53:29;22.80;61.50
35325;DHT22;35135;47.510;19.036;2023-10-31T09:55:55;22.80;61.50
35325;DHT22;35135;47.510;19.036;2023-10-31T09:58:22;22.80;61.50
35325;DHT22;35135;47.510;19.036;2023-10-31T10:00:48;22.80;61.10
35325;DHT22;35135;47.510;19.036;2023-10-31T10:03:14;22.80;61.50
35325;DHT22;35135;47.510;19.036;2023-10-31T10:05:41;22.80;61.50
35325;DHT22;35135;47.510;19.036;2023-10-31T10:08:09;22.90;61.50
35325;DHT22;35135;47.510;19.036;2023-10-31T10:10:36;22.80;61.50
35325;DHT22;35135;47.510;19.036;2023-10-31T10:13:03;22.90;61.50
35325;DHT22;35135;47.510;19.036;2023-10-31T10:15:30;22.80;61.40
35325;DHT22;35135;47.510;19.036;2023-10-31T10:17:55;22.90;61.30
35325;DHT22;35135;47.510;19.036;2023-10-31T10:20:21;22.80;61.30
35325;DHT22;35135;47.510;19.036;2023-10-31T10:22:47;22.80;61.40
35325;DHT22;35135;47.510;19.036;2023-10-31T10:25:17;22.90;61.30
35325;DHT22;35135;47.510;19.036;2023-10-31T10:27:46;22.90;61.30
35325;DHT22;35135;47.510;19.036;2023-10-31T10:30:13;22.90;61.20
35325;DHT22;35135;47.510;19.036;2023-10-31T10:32:39;22.90;61.30
35325;DHT22;35135;47.510;19.036;2023-10-31T10:35:06;22.80;61.40
35325;DHT22;35135;47.510;19.036;2023-10-31T10:37:31;22.90;61.50
35325;DHT22;35135;47.510;19.036;2023-10-31T10:39:57;22.90;61.70
35325;DHT22;35135;47.510;19.036;2023-10-31T10:42:46;22.90;61.70
35325;DHT22;35135;47.510;19.036;2023-10-31T10:45:14;22.90;61.50
35325;DHT22;35135;47.510;19.036;2023-10-31T10:47:45;23.00;61.60
35325;DHT22;35135;47.510;19.036;2023-10-31T10:50:13;22.90;61.40
35325;DHT22;35135;47.510;19.036;2023-10-31T10:55:25;22.90;61.40
35325;DHT22;35135;47.510;19.036;2023-10-31T10:58:25;23.00;61.60
35325;DHT22;35135;47.510;19.036;2023-10-31T11:00:47;23.00;61.50
35325;DHT22;35135;47.510;19.036;2023-10-31T11:03:14;23.00;61.60
35325;DHT22;35135;47.510;19.036;2023-10-31T11:05:40;23.00;61.60
35325;DHT22;35135;47.510;19.036;2023-10-31T11:08:06;23.00;61.50
35325;DHT22;35135;47.510;19.036;2023-10-31T11:10:32;23.00;61.70
35325;DHT22;35135;47.510;19.036;2023-10-31T11:12:58;23.00;61.60
35325;DHT22;35135;47.510;19.036;2023-10-31T11:15:24;23.00;61.60
35325;DHT22;35135;47.510;19.036;2023-10-31T11:17:50;23.00;61.50
35325;DHT22;35135;47.510;19.036;2023-10-31T11:20:18;23.00;61.50
35325;DHT22;35135;47.510;19.036;2023-10-31T11:22:46;23.00;61.60
35325;DHT22;35135;47.510;19.036;2023-10-31T11:25:23;23.00;61.50
35325;DHT22;35135;47.510;19.036;2023-10-31T11:27:53;23.00;62.10
35325;DHT22;35135;47.510;19.036;2023-10-31T11:32:48;23.00;61.60
35325;DHT22;35135;47.510;19.036;2023-10-31T11:35:16;23.00;61.70
35325;DHT22;35135;47.510;19.036;2023-10-31T11:37:42;23.00;61.40
35325;DHT22;35135;47.510;19.036;2023-10-31T11:42:44;22.90;61.50
35325;DHT22;35135;47.510;19.036;2023-10-31T11:45:12;22.90;61.60
35325;DHT22;35135;47.510;19.036;2023-10-31T11:47:49;22.90;61.60
35325;DHT22;35135;47.510;19.036;2023-10-31T11:50:15;22.90;61.60
35325;DHT22;35135;47.510;19.036;2023-10-31T11:52:41;22.90;61.50
35325;DHT22;35135;47.510;19.036;2023-10-31T11:55:12;23.00;61.50
35325;DHT22;35135;47.510;19.036;2023-10-31T11:57:39;23.00;61.50
35325;DHT22;35135;47.510;19.036;2023-10-31T12:00:05;23.00;61.50
35325;DHT22;35135;47.510;19.036;2023-10-31T12:02:33;23.00;61.50
35325;DHT22;35135;47.510;19.036;2023-10-31T12:05:16;23.00;61.40
35325;DHT22;35135;47.510;19.036;2023-10-31T12:07:45;23.00;61.40
35325;DHT22;35135;47.510;19.036;2023-10-31T12:10:12;23.00;61.40
35325;DHT22;35135;47.510;19.036;2023-10-31T12:12:38;23.00;61.40
35325;DHT22;35135;47.510;19.036;2023-10-31T12:15:07;23.00;61.20
35325;DHT22;35135;47.510;19.036;2023-10-31T12:17:34;23.00;61.30
35325;DHT22;35135;47.510;19.036;2023-10-31T12:20:04;22.90;61.30
35325;DHT22;35135;47.510;19.036;2023-10-31T12:22:30;22.90;60.80
35325;DHT22;35135;47.510;19.036;2023-10-31T12:25:07;22.90;60.80
35325;DHT22;35135;47.510;19.036;2023-10-31T12:27:46;22.90;61.10
35325;DHT22;35135;47.510;19.036;2023-10-31T12:30:14;22.90;61.10
35325;DHT22;35135;47.510;19.036;2023-10-31T12:32:41;22.90;61.10
35325;DHT22;35135;47.510;19.036;2023-10-31T12:35:10;22.90;60.80
35325;DHT22;35135;47.510;19.036;2023-10-31T12:37:37;22.90;60.90
35325;DHT22;35135;47.510;19.036;2023-10-31T12:40:03;22.90;60.90
35325;DHT22;35135;47.510;19.036;2023-10-31T12:42:31;23.00;61.10
35325;DHT22;35135;47.510;19.036;2023-10-31T12:44:58;23.00;61.10
35325;DHT22;35135;47.510;19.036;2023-10-31T12:47:24;23.00;61.10
35325;DHT22;35135;47.510;19.036;2023-10-31T12:50:12;22.90;61.10
35325;DHT22;35135;47.510;19.036;2023-10-31T12:55:14;23.00;61.10
35325;DHT22;35135;47.510;19.036;2023-10-31T12:57:40;23.00;61.10
35325;DHT22;35135;47.510;19.036;2023-10-31T13:00:06;23.00;61.10
35325;DHT22;35135;47.510;19.036;2023-10-31T13:02:36;23.00;61.10
35325;DHT22;35135;47.510;19.036;2023-10-31T13:05:13;23.00;61.10
35325;DHT22;35135;47.510;19.036;2023-10-31T13:07:40;23.00;61.10
35325;DHT22;35135;47.510;19.036;2023-10-31T13:10:07;23.00;61.20
35325;DHT22;35135;47.510;19.036;2023-10-31T13:12:36;23.00;61.20
35325;DHT22;35135;47.510;19.036;2023-10-31T13:15:02;23.00;61.20
35325;DHT22;35135;47.510;19.036;2023-10-31T13:17:27;23.00;61.20
35325;DHT22;35135;47.510;19.036;2023-10-31T13:19:53;23.00;61.20
35325;DHT22;35135;47.510;19.036;2023-10-31T13:22:19;23.00;61.20
35325;DHT22;35135;47.510;19.036;2023-10-31T13:24:45;23.00;61.20
35325;DHT22;35135;47.510;19.036;2023-10-31T13:27:11;23.00;61.30
35325;DHT22;35135;47.510;19.036;2023-10-31T13:29:41;23.00;61.50
35325;DHT22;35135;47.510;19.036;2023-10-31T13:32:07;23.00;61.50
35325;DHT22;35135;47.510;19.036;2023-10-31T13:34:34;23.00;61.30
35325;DHT22;35135;47.510;19.036;2023-10-31T13:37:00;23.00;61.30
35325;DHT22;35135;47.510;19.036;2023-10-31T13:39:26;23.00;61.20
35325;DHT22;35135;47.510;19.036;2023-10-31T13:41:51;23.00;61.30
35325;DHT22;35135;47.510;19.036;2023-10-31T13:44:17;23.00;61.30
35325;DHT22;35135;47.510;19.036;2023-10-31T13:46:42;23.00;61.30
35325;DHT22;35135;47.510;19.036;2023-10-31T13:49:08;23.00;61.30
35325;DHT22;35135;47.510;19.036;2023-10-31T13:51:34;23.00;61.40
35325;DHT22;35135;47.510;19.036;2023-10-31T13:54:01;23.00;61.30
35325;DHT22;35135;47.510;19.036;2023-10-31T13:56:27;23.00;61.30
35325;DHT22;35135;47.510;19.036;2023-10-31T13:58:53;23.00;61.40
35325;DHT22;35135;47.510;19.036;2023-10-31T14:01:18;23.00;62.00
35325;DHT22;35135;47.510;19.036;2023-10-31T14:03:50;23.00;61.40
35325;DHT22;35135;47.510;19.036;2023-10-31T14:06:15;23.00;61.50
35325;DHT22;35135;47.510;19.036;2023-10-31T14:08:42;23.00;61.40
35325;DHT22;35135;47.510;19.036;2023-10-31T14:11:08;23.00;61.50
35325;DHT22;35135;47.510;19.036;2023-10-31T14:13:36;22.90;61.60
35325;DHT22;35135;47.510;19.036;2023-10-31T14:16:02;22.90;61.50
35325;DHT22;35135;47.510;19.036;2023-10-31T14:18:28;22.90;61.60
35325;DHT22;35135;47.510;19.036;2023-10-31T14:20:53;22.90;61.60
35325;DHT22;35135;47.510;19.036;2023-10-31T14:23:19;22.90;61.60
35325;DHT22;35135;47.510;19.036;2023-10-31T14:25:45;22.90;61.60
35325;DHT22;35135;47.510;19.036;2023-10-31T14:28:11;22.90;61.70
35325;DHT22;35135;47.510;19.036;2023-10-31T14:30:36;22.90;61.50
35325;DHT22;35135;47.510;19.036;2023-10-31T14:33:02;23.00;61.60
35325;DHT22;35135;47.510;19.036;2023-10-31T14:35:28;22.90;61.60
35325;DHT22;35135;47.510;19.036;2023-10-31T14:37:53;23.00;61.60
35325;DHT22;35135;47.510;19.036;2023-10-31T14:40:19;22.90;61.50
35325;DHT22;35135;47.510;19.036;2023-10-31T14:42:45;23.00;61.50
35325;DHT22;35135;47.510;19.036;2023-10-31T14:45:10;23.00;61.70
35325;DHT22;35135;47.510;19.036;2023-10-31T14:47:36;23.00;61.70
35325;DHT22;35135;47.510;19.036;2023-10-31T14:50:02;23.00;61.70
35325;DHT22;35135;47.510;19.036;2023-10-31T14:52:28;23.00;61.90
35325;DHT22;35135;47.510;19.036;2023-10-31T14:54:53;23.00;61.80
35325;DHT22;35135;47.510;19.036;2023-10-31T14:57:19;23.00;61.80
35325;DHT22;35135;47.510;19.036;2023-10-31T14:59:45;23.00;61.90
35325;DHT22;35135;47.510;19.036;2023-10-31T15:02:11;23.00;62.00
35325;DHT22;35135;47.510;19.036;2023-10-31T15:04:36;23.00;62.00
35325;DHT22;35135;47.510;19.036;2023-10-31T15:07:02;23.00;62.00
35325;DHT22;35135;47.510;19.036;2023-10-31T15:09:28;23.00;61.80
35325;DHT22;35135;47.510;19.036;2023-10-31T15:11:54;23.00;62.20
35325;DHT22;35135;47.510;19.036;2023-10-31T15:14:19;23.00;62.20
35325;DHT22;35135;47.510;19.036;2023-10-31T15:16:45;23.00;62.40
35325;DHT22;35135;47.510;19.036;2023-10-31T15:19:11;23.00;62.60
35325;DHT22;35135;47.510;19.036;2023-10-31T15:21:37;23.10;62.60